Industrial, Louisiana
Current Conditions -  °F | °C
As of 3:53 AM on Sunday 21 Dec 2014 (Local Time) from KDTN Reporting Station
Haze Haze  
Wind Chill: 34°   Ceiling: 300
Heat Index: 34°   Visibility: 0.75mi
Dew Point: 33°   Wind: 0mph
Humidity: 96%   Direction: NA
Pressure: 30.17"   Gusts: NA
Location:  32.5955°N, 93.8642°W
Report Text: KDTN 210953Z AUTO 00000KT 3/4SM BR VV003 01/01 A3017 RMK AO2 VIS 1/2V2 SLP214 T00110006
Loading
Personal Weather Stations






























Interactive Weather Map New forecast layout! Learn more

10-Day Weather Forecast

Advertisements
Track Severe Weather on mobile